Time;durP1;ratioP1;P1;durP2;ratioP2;P2;SDS_P1;SDS_P2;PMS_P1;PMS_P2;Temp;Humidity;BMP_temperature;BMP_pressure;BME280_temperature;BME280_humidity;BME280_pressure;Samples;Min_cycle;Max_cycle;Signal;HPM_P1;HPM_P2
2022/03/07 00:00:51;;;;;;;14.70;9.00;;;;;;;;;;5012639;28;20025;-73
2022/03/07 00:03:16;;;;;;;15.18;9.73;;;;;;;;;;5012546;28;20458;-72
2022/03/07 00:05:42;;;;;;;14.73;8.75;;;;;;;;;;5012644;28;20025;-73
2022/03/07 00:08:07;;;;;;;14.60;9.68;;;;;;;;;;5012433;28;20053;-72
2022/03/07 00:10:32;;;;;;;12.95;9.02;;;;;;;;;;5015495;28;20025;-72
2022/03/07 00:12:58;;;;;;;16.60;9.65;;;;;;;;;;5028139;28;20060;-72
2022/03/07 00:15:23;;;;;;;16.10;9.50;;;;;;;;;;5024292;28;20017;-72
2022/03/07 00:17:48;;;;;;;16.63;9.50;;;;;;;;;;5030290;28;20056;-72
2022/03/07 00:20:14;;;;;;;14.35;9.55;;;;;;;;;;5023908;28;20028;-72
2022/03/07 00:22:39;;;;;;;16.65;9.57;;;;;;;;;;5032674;28;20025;-73
2022/03/07 00:25:05;;;;;;;17.40;9.35;;;;;;;;;;5032457;28;20036;-72
2022/03/07 00:27:30;;;;;;;12.20;8.43;;;;;;;;;;5029802;28;20026;-72
2022/03/07 00:29:56;;;;;;;13.75;8.88;;;;;;;;;;5023756;28;20025;-72
2022/03/07 00:32:21;;;;;;;13.52;9.10;;;;;;;;;;5031826;28;20033;-72
2022/03/07 00:34:46;;;;;;;15.93;10.45;;;;;;;;;;5032362;28;20029;-72
2022/03/07 00:37:14;;;;;;;13.00;8.60;;;;;;;;;;5031902;28;20036;-73
2022/03/07 00:39:39;;;;;;;15.57;9.13;;;;;;;;;;5030988;28;20091;-73
2022/03/07 00:42:04;;;;;;;14.68;8.80;;;;;;;;;;5031616;28;20022;-73
2022/03/07 00:44:30;;;;;;;15.07;9.15;;;;;;;;;;5031936;28;20479;-72
2022/03/07 00:46:55;;;;;;;15.63;9.25;;;;;;;;;;5031535;28;20024;-72
2022/03/07 00:49:21;;;;;;;12.25;8.48;;;;;;;;;;5030221;28;20018;-72
2022/03/07 00:51:46;;;;;;;11.95;8.40;;;;;;;;;;5031659;28;20125;-72
2022/03/07 00:54:11;;;;;;;12.60;8.32;;;;;;;;;;5031506;28;20029;-72
2022/03/07 00:56:36;;;;;;;12.63;8.73;;;;;;;;;;5031573;28;20553;-72
2022/03/07 00:59:02;;;;;;;15.15;8.48;;;;;;;;;;5031101;28;20032;-72
2022/03/07 01:01:28;;;;;;;11.63;7.72;;;;;;;;;;5031310;28;20033;-72
2022/03/07 01:03:53;;;;;;;11.70;7.93;;;;;;;;;;5031664;28;20029;-73
2022/03/07 01:06:18;;;;;;;10.60;7.53;;;;;;;;;;5031242;28;20021;-72
2022/03/07 01:08:44;;;;;;;13.38;8.95;;;;;;;;;;5031182;28;20025;-72
2022/03/07 01:11:10;;;;;;;11.23;8.05;;;;;;;;;;5031041;28;20112;-73
2022/03/07 01:13:35;;;;;;;11.15;8.00;;;;;;;;;;5030007;28;20391;-72
2022/03/07 01:16:00;;;;;;;14.23;8.63;;;;;;;;;;5031422;28;20509;-72
2022/03/07 01:18:26;;;;;;;12.75;7.68;;;;;;;;;;5030933;28;20025;-73
2022/03/07 01:20:51;;;;;;;11.07;7.75;;;;;;;;;;5029646;28;20017;-72
2022/03/07 01:23:17;;;;;;;9.43;6.88;;;;;;;;;;5030882;28;20514;-72
2022/03/07 01:25:42;;;;;;;9.55;6.35;;;;;;;;;;5031108;28;20597;-72
2022/03/07 01:28:08;;;;;;;8.88;6.18;;;;;;;;;;5031044;28;20030;-71
2022/03/07 01:30:33;;;;;;;12.40;6.57;;;;;;;;;;5029784;28;20057;-73
2022/03/07 01:32:58;;;;;;;9.50;6.18;;;;;;;;;;5030905;28;20070;-72
2022/03/07 01:35:24;;;;;;;9.85;6.28;;;;;;;;;;5031219;28;20021;-72
2022/03/07 01:37:49;;;;;;;11.43;7.00;;;;;;;;;;5030906;28;20510;-72
2022/03/07 01:40:15;;;;;;;8.60;6.00;;;;;;;;;;5030839;28;20025;-72
2022/03/07 01:42:40;;;;;;;8.45;5.95;;;;;;;;;;5030795;28;20025;-72
2022/03/07 01:45:14;;;;;;;10.10;5.97;;;;;;;;;;5030954;28;20108;-72
2022/03/07 01:47:40;;;;;;;8.68;5.97;;;;;;;;;;5030904;28;20547;-72
2022/03/07 01:50:09;;;;;;;8.88;6.10;;;;;;;;;;5030473;28;20029;-71
2022/03/07 01:52:38;;;;;;;9.90;5.85;;;;;;;;;;5030588;28;20025;-73
2022/03/07 01:55:04;;;;;;;9.35;5.57;;;;;;;;;;5031087;28;20379;-72
2022/03/07 01:57:30;;;;;;;8.90;5.88;;;;;;;;;;5030654;28;20538;-72
2022/03/07 01:59:56;;;;;;;9.18;5.88;;;;;;;;;;5029383;28;20037;-72
2022/03/07 02:02:24;;;;;;;7.47;5.43;;;;;;;;;;5030850;28;20059;-72
2022/03/07 02:04:51;;;;;;;7.40;5.32;;;;;;;;;;5030229;28;20104;-72
2022/03/07 02:07:16;;;;;;;8.00;5.40;;;;;;;;;;5030409;28;20281;-72
2022/03/07 02:09:42;;;;;;;9.10;5.70;;;;;;;;;;5030075;28;20120;-72
2022/03/07 02:12:08;;;;;;;9.80;5.63;;;;;;;;;;5030565;28;20045;-70
2022/03/07 02:14:34;;;;;;;9.27;6.00;;;;;;;;;;5029910;28;20072;-71
2022/03/07 02:17:00;;;;;;;9.57;5.82;;;;;;;;;;5030045;28;20052;-72
2022/03/07 02:19:25;;;;;;;9.55;6.20;;;;;;;;;;5029675;28;20052;-71
2022/03/07 02:21:59;;;;;;;8.00;5.80;;;;;;;;;;5029551;28;20390;-70
2022/03/07 02:24:25;;;;;;;9.20;5.72;;;;;;;;;;5029829;28;20049;-72
2022/03/07 02:27:01;;;;;;;10.95;6.40;;;;;;;;;;5029886;28;20514;-71
2022/03/07 02:29:28;;;;;;;7.18;5.10;;;;;;;;;;5029623;28;20113;-71
2022/03/07 02:31:53;;;;;;;8.55;5.90;;;;;;;;;;5030174;28;20438;-70
2022/03/07 02:34:18;;;;;;;8.57;5.25;;;;;;;;;;5029657;28;20117;-71
2022/03/07 02:36:44;;;;;;;8.50;5.88;;;;;;;;;;5029655;28;20021;-71
2022/03/07 02:39:10;;;;;;;8.18;5.70;;;;;;;;;;5029489;28;20283;-71
2022/03/07 02:41:41;;;;;;;8.45;5.82;;;;;;;;;;5029607;28;20032;-72
2022/03/07 02:44:07;;;;;;;8.48;5.50;;;;;;;;;;5029777;28;20049;-71
2022/03/07 02:46:33;;;;;;;9.10;5.95;;;;;;;;;;5029714;28;20033;-71
2022/03/07 02:48:58;;;;;;;9.05;5.93;;;;;;;;;;5029365;28;20079;-71
2022/03/07 02:51:24;;;;;;;10.10;6.35;;;;;;;;;;5029522;28;20064;-71
2022/03/07 02:53:49;;;;;;;8.70;5.50;;;;;;;;;;5029611;28;20022;-71
2022/03/07 02:56:15;;;;;;;8.60;5.80;;;;;;;;;;5029464;28;20026;-70
2022/03/07 02:58:41;;;;;;;8.10;5.60;;;;;;;;;;5027995;28;20029;-71
2022/03/07 03:01:07;;;;;;;8.95;5.47;;;;;;;;;;5029492;28;20498;-71
2022/03/07 03:03:32;;;;;;;7.28;5.43;;;;;;;;;;5032379;28;20033;-72
2022/03/07 03:05:58;;;;;;;10.80;5.70;;;;;;;;;;5033309;28;20029;-71
2022/03/07 03:08:23;;;;;;;8.48;5.47;;;;;;;;;;5033042;28;20037;-72
2022/03/07 03:10:50;;;;;;;7.85;5.28;;;;;;;;;;5032760;28;20029;-71
2022/03/07 03:13:17;;;;;;;8.13;5.13;;;;;;;;;;5033061;28;20108;-71
2022/03/07 03:15:43;;;;;;;7.38;5.40;;;;;;;;;;5032929;28;20033;-71
2022/03/07 03:18:08;;;;;;;8.57;5.53;;;;;;;;;;5032709;28;20026;-71
2022/03/07 03:20:34;;;;;;;7.32;5.47;;;;;;;;;;5032816;28;20025;-71
2022/03/07 03:22:59;;;;;;;9.57;6.53;;;;;;;;;;5032776;28;20033;-72
2022/03/07 03:25:25;;;;;;;8.73;5.60;;;;;;;;;;5032700;28;20029;-71
2022/03/07 03:27:50;;;;;;;9.80;6.32;;;;;;;;;;5032742;28;20022;-72
2022/03/07 03:30:15;;;;;;;8.43;5.80;;;;;;;;;;5032437;28;20025;-73
2022/03/07 03:32:41;;;;;;;8.25;5.82;;;;;;;;;;5032516;28;20030;-72
2022/03/07 03:35:06;;;;;;;7.80;5.82;;;;;;;;;;5032498;28;20036;-72
2022/03/07 03:37:32;;;;;;;9.00;5.60;;;;;;;;;;5032617;28;20033;-72
2022/03/07 03:39:57;;;;;;;8.02;5.78;;;;;;;;;;5032234;28;20060;-71
2022/03/07 03:42:22;;;;;;;9.90;5.63;;;;;;;;;;5032626;28;20030;-72
2022/03/07 03:44:48;;;;;;;9.30;5.63;;;;;;;;;;5032460;28;20025;-72
2022/03/07 03:47:14;;;;;;;8.45;5.80;;;;;;;;;;5032480;28;20029;-72
2022/03/07 03:49:39;;;;;;;9.30;6.00;;;;;;;;;;5031999;28;20326;-71
2022/03/07 03:52:05;;;;;;;7.65;5.60;;;;;;;;;;5032273;28;20120;-72
2022/03/07 03:54:30;;;;;;;7.47;5.70;;;;;;;;;;5032075;28;20025;-72
2022/03/07 03:56:58;;;;;;;10.98;5.70;;;;;;;;;;5032251;28;20287;-72
2022/03/07 03:59:23;;;;;;;9.00;5.97;;;;;;;;;;5032015;28;20029;-72
2022/03/07 04:01:49;;;;;;;7.32;5.20;;;;;;;;;;5032164;28;20475;-72
2022/03/07 04:04:15;;;;;;;8.65;5.47;;;;;;;;;;5031967;28;20032;-72
2022/03/07 04:06:41;;;;;;;10.27;6.15;;;;;;;;;;5032120;28;20079;-72
2022/03/07 04:09:08;;;;;;;7.75;5.53;;;;;;;;;;5031599;28;20048;-73
2022/03/07 04:11:33;;;;;;;8.70;5.75;;;;;;;;;;5032024;28;20033;-72
2022/03/07 04:13:59;;;;;;;8.73;5.68;;;;;;;;;;5031666;28;20420;-72
2022/03/07 04:16:24;;;;;;;7.32;5.22;;;;;;;;;;5031807;28;20021;-72
2022/03/07 04:18:49;;;;;;;9.50;5.75;;;;;;;;;;5031544;28;20045;-72
2022/03/07 04:21:14;;;;;;;9.20;5.97;;;;;;;;;;5030321;28;20036;-72
2022/03/07 04:23:40;;;;;;;7.35;5.57;;;;;;;;;;5032147;28;20023;-72
2022/03/07 04:26:05;;;;;;;8.60;5.43;;;;;;;;;;5031755;28;20383;-72
2022/03/07 04:28:30;;;;;;;8.40;5.90;;;;;;;;;;5031574;28;20025;-72
2022/03/07 04:30:56;;;;;;;9.90;6.18;;;;;;;;;;5031349;28;20048;-71
2022/03/07 04:33:21;;;;;;;9.00;5.70;;;;;;;;;;5031501;28;20032;-72
2022/03/07 04:35:46;;;;;;;9.18;5.63;;;;;;;;;;5031512;28;20036;-71
2022/03/07 04:38:12;;;;;;;5.90;5.18;;;;;;;;;;5031379;28;20025;-72
2022/03/07 04:40:37;;;;;;;8.98;5.80;;;;;;;;;;5031849;28;20014;-72
2022/03/07 04:43:02;;;;;;;7.40;4.95;;;;;;;;;;5031446;28;20486;-73
2022/03/07 04:45:28;;;;;;;7.30;5.35;;;;;;;;;;5031348;28;20479;-72
2022/03/07 04:47:53;;;;;;;9.98;5.20;;;;;;;;;;5031547;28;20079;-72
2022/03/07 04:50:18;;;;;;;8.13;4.95;;;;;;;;;;5030763;28;20092;-72
2022/03/07 04:52:44;;;;;;;8.07;5.60;;;;;;;;;;5031021;28;20036;-72
2022/03/07 04:55:10;;;;;;;13.18;5.55;;;;;;;;;;5031001;28;20022;-73
2022/03/07 04:57:36;;;;;;;9.15;6.22;;;;;;;;;;5031133;28;20101;-73
2022/03/07 05:00:04;;;;;;;9.15;6.07;;;;;;;;;;5030789;28;20097;-72
2022/03/07 05:02:29;;;;;;;8.57;5.28;;;;;;;;;;5030753;28;20021;-73
2022/03/07 05:04:55;;;;;;;8.85;5.90;;;;;;;;;;5030799;28;20487;-72
2022/03/07 05:07:20;;;;;;;7.82;5.53;;;;;;;;;;5030852;28;20026;-73
2022/03/07 05:09:45;;;;;;;11.93;7.10;;;;;;;;;;5030546;28;20029;-72
2022/03/07 05:12:11;;;;;;;11.38;6.25;;;;;;;;;;5030621;28;20041;-73
2022/03/07 05:14:36;;;;;;;8.55;5.88;;;;;;;;;;5030800;28;20032;-73
2022/03/07 05:17:01;;;;;;;8.48;6.03;;;;;;;;;;5030127;28;20541;-72
2022/03/07 05:19:27;;;;;;;6.78;5.00;;;;;;;;;;5007931;28;20109;-73
2022/03/07 05:21:52;;;;;;;8.52;5.47;;;;;;;;;;5010386;28;20041;-73
2022/03/07 05:24:17;;;;;;;7.55;5.30;;;;;;;;;;5010745;28;20030;-72
2022/03/07 05:26:43;;;;;;;9.13;5.72;;;;;;;;;;5010379;28;20034;-72
2022/03/07 05:29:08;;;;;;;8.88;5.30;;;;;;;;;;5010065;28;20392;-72
2022/03/07 05:31:33;;;;;;;9.15;5.05;;;;;;;;;;5010617;28;20034;-73
2022/03/07 05:33:59;;;;;;;6.82;4.90;;;;;;;;;;5010937;28;20033;-72
2022/03/07 05:36:24;;;;;;;6.55;5.22;;;;;;;;;;5010779;28;20022;-72
2022/03/07 05:38:50;;;;;;;7.40;5.13;;;;;;;;;;5010519;28;20030;-72
2022/03/07 05:41:15;;;;;;;6.53;4.75;;;;;;;;;;5010561;28;20476;-72
2022/03/07 05:43:41;;;;;;;6.93;4.18;;;;;;;;;;5010628;28;20034;-72
2022/03/07 05:46:07;;;;;;;7.35;4.63;;;;;;;;;;5010425;28;20480;-72
2022/03/07 05:48:33;;;;;;;7.75;4.88;;;;;;;;;;5010038;28;20053;-72
2022/03/07 05:50:59;;;;;;;6.22;4.32;;;;;;;;;;4990807;28;20499;-72
2022/03/07 05:53:24;;;;;;;6.35;4.53;;;;;;;;;;4990712;28;20022;-72
2022/03/07 05:55:52;;;;;;;7.03;4.65;;;;;;;;;;4990768;28;20065;-72
2022/03/07 05:58:18;;;;;;;7.32;5.13;;;;;;;;;;4990663;28;20026;-72
2022/03/07 06:00:44;;;;;;;7.07;5.05;;;;;;;;;;4990378;28;20487;-72
2022/03/07 06:03:10;;;;;;;8.15;5.05;;;;;;;;;;4990636;28;20069;-72
2022/03/07 06:05:36;;;;;;;7.57;4.63;;;;;;;;;;4990588;28;20022;-73
2022/03/07 06:08:02;;;;;;;6.82;4.85;;;;;;;;;;4990598;28;20089;-72
2022/03/07 06:10:28;;;;;;;6.78;5.05;;;;;;;;;;4990592;28;20089;-73
2022/03/07 06:12:53;;;;;;;7.72;4.93;;;;;;;;;;4989234;28;20676;-72
2022/03/07 06:15:19;;;;;;;8.30;6.90;;;;;;;;;;4990640;28;20034;-72
2022/03/07 06:17:53;;;;;;;86.78;47.03;;;;;;;;;;4999407;28;20030;-72
2022/03/07 06:20:20;;;;;;;18.33;11.73;;;;;;;;;;5010132;28;20022;-73
2022/03/07 06:22:45;;;;;;;9.68;6.07;;;;;;;;;;5010195;28;20026;-72
2022/03/07 06:25:10;;;;;;;9.25;5.78;;;;;;;;;;5010413;28;20476;-73
2022/03/07 06:27:37;;;;;;;10.63;5.43;;;;;;;;;;5010111;28;20032;-73
2022/03/07 06:30:03;;;;;;;11.18;5.88;;;;;;;;;;5009921;28;20026;-73
2022/03/07 06:32:28;;;;;;;10.18;5.22;;;;;;;;;;5010099;28;20022;-73
2022/03/07 06:34:53;;;;;;;8.93;5.10;;;;;;;;;;5011775;28;20026;-73
2022/03/07 06:37:19;;;;;;;7.65;5.22;;;;;;;;;;5024187;28;20024;-73
2022/03/07 06:39:44;;;;;;;11.63;5.88;;;;;;;;;;5014158;28;20382;-72
2022/03/07 06:42:10;;;;;;;10.88;5.60;;;;;;;;;;5013737;28;20060;-73
2022/03/07 06:44:39;;;;;;;10.05;5.20;;;;;;;;;;5013693;28;20480;-73
2022/03/07 06:47:06;;;;;;;9.30;6.28;;;;;;;;;;5013578;28;20025;-73
2022/03/07 06:49:31;;;;;;;8.63;5.53;;;;;;;;;;5013779;28;20030;-73
2022/03/07 06:51:56;;;;;;;11.15;5.72;;;;;;;;;;5013347;28;20403;-73
2022/03/07 06:54:21;;;;;;;8.90;5.60;;;;;;;;;;5013275;28;20044;-73
2022/03/07 06:56:47;;;;;;;9.93;5.75;;;;;;;;;;5013910;28;20080;-73
2022/03/07 06:59:12;;;;;;;7.40;5.25;;;;;;;;;;5013122;28;20033;-72
2022/03/07 07:01:37;;;;;;;7.90;5.22;;;;;;;;;;5030185;28;20487;-74
2022/03/07 07:04:03;;;;;;;14.52;7.50;;;;;;;;;;5023135;28;20035;-73
2022/03/07 07:06:28;;;;;;;8.10;5.07;;;;;;;;;;5023492;28;20071;-73
2022/03/07 07:08:53;;;;;;;7.97;4.63;;;;;;;;;;5032596;28;20104;-73
2022/03/07 07:11:19;;;;;;;8.13;4.80;;;;;;;;;;5032670;28;20032;-73
2022/03/07 07:13:44;;;;;;;11.32;5.68;;;;;;;;;;5032730;28;20467;-73
2022/03/07 07:16:09;;;;;;;9.75;5.25;;;;;;;;;;5032039;28;20082;-73
2022/03/07 07:18:35;;;;;;;9.95;5.20;;;;;;;;;;5032542;28;20101;-73
2022/03/07 07:21:00;;;;;;;12.10;5.82;;;;;;;;;;5032842;28;20021;-74
2022/03/07 07:23:25;;;;;;;11.13;5.80;;;;;;;;;;5032908;28;20072;-73
2022/03/07 07:25:51;;;;;;;8.98;5.60;;;;;;;;;;5028505;28;20442;-74
2022/03/07 07:28:16;;;;;;;9.00;5.00;;;;;;;;;;5012627;28;20022;-72
2022/03/07 07:30:42;;;;;;;9.15;5.70;;;;;;;;;;5012596;28;20041;-74
2022/03/07 07:33:07;;;;;;;7.93;5.60;;;;;;;;;;5012814;28;20125;-73
2022/03/07 07:35:36;;;;;;;13.77;6.00;;;;;;;;;;5012483;28;20092;-73
2022/03/07 07:38:03;;;;;;;13.25;6.28;;;;;;;;;;5032123;28;20039;-73
2022/03/07 07:40:29;;;;;;;9.23;5.55;;;;;;;;;;5032079;28;20498;-73
2022/03/07 07:42:54;;;;;;;8.65;4.85;;;;;;;;;;5031980;28;20030;-73
2022/03/07 07:45:19;;;;;;;7.00;5.45;;;;;;;;;;5032244;28;20033;-72
2022/03/07 07:47:45;;;;;;;9.05;5.75;;;;;;;;;;5021493;28;20054;-73
2022/03/07 07:50:10;;;;;;;9.32;5.78;;;;;;;;;;5026958;28;20108;-71
2022/03/07 07:52:36;;;;;;;9.07;5.15;;;;;;;;;;5012399;28;20076;-70
2022/03/07 07:55:04;;;;;;;9.68;6.13;;;;;;;;;;5011255;28;20402;-71
2022/03/07 07:57:30;;;;;;;9.82;6.30;;;;;;;;;;5010955;28;20072;-71
2022/03/07 07:59:55;;;;;;;13.30;8.00;;;;;;;;;;5011044;28;20197;-71
2022/03/07 08:02:21;;;;;;;9.68;7.25;;;;;;;;;;5011315;28;20435;-71
2022/03/07 08:04:46;;;;;;;8.63;6.50;;;;;;;;;;5013418;28;20125;-70
2022/03/07 08:07:12;;;;;;;9.02;6.80;;;;;;;;;;5012264;28;20018;-72
2022/03/07 08:09:37;;;;;;;9.73;6.88;;;;;;;;;;5011755;28;20026;-71
2022/03/07 08:12:03;;;;;;;9.85;7.38;;;;;;;;;;5012156;28;20484;-71
2022/03/07 08:14:28;;;;;;;9.43;7.28;;;;;;;;;;5012959;28;20053;-72
2022/03/07 08:16:53;;;;;;;12.27;7.45;;;;;;;;;;5012418;28;20365;-72
2022/03/07 08:19:19;;;;;;;11.20;9.02;;;;;;;;;;5011643;28;20037;-72
2022/03/07 08:21:44;;;;;;;10.70;7.70;;;;;;;;;;5010455;28;20029;-71
2022/03/07 08:24:09;;;;;;;11.18;8.27;;;;;;;;;;5012920;28;20026;-71
2022/03/07 08:26:35;;;;;;;10.63;8.48;;;;;;;;;;5012744;28;20033;-72
2022/03/07 08:29:00;;;;;;;12.00;8.88;;;;;;;;;;5007875;28;20022;-72
2022/03/07 08:31:25;;;;;;;11.00;8.32;;;;;;;;;;5011367;28;20434;-72
2022/03/07 08:33:50;;;;;;;10.52;8.38;;;;;;;;;;5011070;28;20409;-72
2022/03/07 08:36:16;;;;;;;12.60;9.27;;;;;;;;;;5012819;28;20053;-73
2022/03/07 08:38:41;;;;;;;9.63;7.80;;;;;;;;;;5009944;28;20033;-72
2022/03/07 08:41:07;;;;;;;10.98;8.50;;;;;;;;;;5011159;28;20018;-71
2022/03/07 08:43:33;;;;;;;10.38;8.50;;;;;;;;;;5012239;28;20386;-72
2022/03/07 08:45:58;;;;;;;12.73;9.45;;;;;;;;;;5022858;28;20013;-71
2022/03/07 08:48:24;;;;;;;11.38;9.60;;;;;;;;;;5012355;28;20088;-71
2022/03/07 08:50:50;;;;;;;11.98;9.80;;;;;;;;;;5011926;28;20036;-74
2022/03/07 08:53:16;;;;;;;11.23;8.85;;;;;;;;;;5013050;28;20502;-72
2022/03/07 08:55:41;;;;;;;10.65;9.27;;;;;;;;;;5025476;28;20067;-70
2022/03/07 08:58:07;;;;;;;11.73;9.20;;;;;;;;;;5005261;28;20559;-71
2022/03/07 09:00:32;;;;;;;9.70;8.70;;;;;;;;;;5009740;28;20032;-70
2022/03/07 09:02:57;;;;;;;10.88;9.25;;;;;;;;;;5009887;28;20594;-72
2022/03/07 09:05:23;;;;;;;11.35;10.25;;;;;;;;;;5010607;28;20025;-72
2022/03/07 09:07:48;;;;;;;11.70;10.50;;;;;;;;;;5014782;28;20026;-71
2022/03/07 09:10:14;;;;;;;18.65;10.27;;;;;;;;;;5011130;28;20412;-72
2022/03/07 09:12:39;;;;;;;14.50;10.32;;;;;;;;;;5010767;28;20060;-72
2022/03/07 09:15:06;;;;;;;14.75;10.27;;;;;;;;;;5012570;28;20491;-73
2022/03/07 09:17:31;;;;;;;12.07;10.07;;;;;;;;;;5018687;28;20108;-70
2022/03/07 09:19:56;;;;;;;10.80;9.70;;;;;;;;;;5026005;28;20109;-73
2022/03/07 09:22:22;;;;;;;11.07;9.88;;;;;;;;;;5030600;28;20344;-72
2022/03/07 09:24:48;;;;;;;11.93;10.13;;;;;;;;;;5028922;28;20034;-72
2022/03/07 09:27:13;;;;;;;11.13;9.60;;;;;;;;;;5028376;28;20029;-72
2022/03/07 09:29:39;;;;;;;11.02;9.93;;;;;;;;;;5029073;28;20029;-74
2022/03/07 09:32:05;;;;;;;11.82;9.80;;;;;;;;;;5030320;28;20033;-73
2022/03/07 09:34:32;;;;;;;17.92;10.77;;;;;;;;;;5030362;28;20021;-72
2022/03/07 09:36:57;;;;;;;11.68;9.30;;;;;;;;;;5030220;28;20040;-74
2022/03/07 09:39:22;;;;;;;11.40;9.32;;;;;;;;;;5018847;28;20022;-73
2022/03/07 09:41:48;;;;;;;9.82;8.65;;;;;;;;;;5010654;28;20021;-74
2022/03/07 09:44:13;;;;;;;9.93;8.93;;;;;;;;;;5023332;28;20026;-72
2022/03/07 09:46:38;;;;;;;11.32;9.32;;;;;;;;;;5025253;28;20033;-73
2022/03/07 09:49:04;;;;;;;10.35;9.07;;;;;;;;;;5009987;28;20037;-73
2022/03/07 09:51:30;;;;;;;11.95;9.75;;;;;;;;;;5022444;28;20112;-71
2022/03/07 09:53:55;;;;;;;10.85;9.52;;;;;;;;;;5027675;28;20076;-73
2022/03/07 09:56:21;;;;;;;12.88;9.63;;;;;;;;;;5028063;28;20029;-75
2022/03/07 09:58:46;;;;;;;12.52;8.57;;;;;;;;;;5012672;28;20076;-72
2022/03/07 10:01:15;;;;;;;9.95;8.95;;;;;;;;;;5010623;28;20025;-75
2022/03/07 10:03:41;;;;;;;12.63;8.65;;;;;;;;;;5013532;28;20036;-76
2022/03/07 10:06:14;;;;;;;11.23;8.82;;;;;;;;;;5012159;28;20030;-75
2022/03/07 10:08:51;;;;;;;11.43;9.20;;;;;;;;;;5011865;28;20045;-74
2022/03/07 10:11:16;;;;;;;10.85;9.07;;;;;;;;;;5023380;28;20040;-77
2022/03/07 10:13:59;;;;;;;11.88;8.38;;;;;;;;;;5029784;28;20021;-75
2022/03/07 10:16:41;;;;;;;10.65;8.05;;;;;;;;;;5017873;28;20476;-75
2022/03/07 10:19:09;;;;;;;11.27;8.93;;;;;;;;;;5009828;28;20085;-75
2022/03/07 10:21:35;;;;;;;10.35;8.40;;;;;;;;;;5010310;28;20101;-76
2022/03/07 10:24:00;;;;;;;9.10;7.55;;;;;;;;;;5010470;28;20033;-74
2022/03/07 10:26:34;;;;;;;8.88;7.97;;;;;;;;;;5008893;28;20021;-73
2022/03/07 10:28:59;;;;;;;8.77;7.88;;;;;;;;;;5023443;28;20287;-74
2022/03/07 10:31:26;;;;;;;8.55;7.65;;;;;;;;;;5029523;28;20064;-74
2022/03/07 10:34:05;;;;;;;9.88;8.32;;;;;;;;;;5028253;28;20043;-74
2022/03/07 10:36:35;;;;;;;9.32;7.03;;;;;;;;;;5029931;28;20072;-76
2022/03/07 10:39:04;;;;;;;9.40;7.28;;;;;;;;;;5027747;28;20476;-74
2022/03/07 10:41:38;;;;;;;8.32;6.93;;;;;;;;;;5030056;28;20037;-74
2022/03/07 10:44:05;;;;;;;9.13;7.07;;;;;;;;;;5030027;28;20033;-74
2022/03/07 10:46:30;;;;;;;8.80;6.95;;;;;;;;;;5029325;28;20033;-73
2022/03/07 10:48:56;;;;;;;9.38;7.57;;;;;;;;;;5029572;28;20080;-74
2022/03/07 10:51:21;;;;;;;7.78;7.07;;;;;;;;;;5028228;28;20456;-74
2022/03/07 10:53:47;;;;;;;7.88;6.60;;;;;;;;;;5027578;28;20021;-74
2022/03/07 10:56:14;;;;;;;10.57;8.18;;;;;;;;;;5030122;28;20037;-74
2022/03/07 10:58:49;;;;;;;10.23;7.18;;;;;;;;;;5028536;28;20044;-72
2022/03/07 11:01:14;;;;;;;9.57;7.32;;;;;;;;;;5010732;28;20029;-75
2022/03/07 11:03:40;;;;;;;8.50;6.30;;;;;;;;;;5011121;28;20026;-75
2022/03/07 11:06:05;;;;;;;10.50;6.72;;;;;;;;;;5010334;28;20049;-75
2022/03/07 11:08:30;;;;;;;9.02;6.50;;;;;;;;;;5016066;28;20399;-76
2022/03/07 11:11:00;;;;;;;7.65;6.65;;;;;;;;;;5028254;28;20083;-76
2022/03/07 11:13:31;;;;;;;10.98;6.78;;;;;;;;;;5021238;28;20107;-74
2022/03/07 11:15:59;;;;;;;9.38;7.47;;;;;;;;;;5042022;28;20547;-74
2022/03/07 11:18:25;;;;;;;9.30;8.05;;;;;;;;;;5008619;28;20025;-76
2022/03/07 11:20:53;;;;;;;7.50;6.47;;;;;;;;;;5010162;28;20474;-76
2022/03/07 11:23:21;;;;;;;8.73;6.93;;;;;;;;;;5010754;28;20491;-77
2022/03/07 11:25:49;;;;;;;8.05;6.05;;;;;;;;;;5014058;28;20018;-77
2022/03/07 11:28:15;;;;;;;8.93;6.78;;;;;;;;;;5012789;28;20033;-73
2022/03/07 11:30:43;;;;;;;8.32;6.47;;;;;;;;;;5013238;28;20412;-76
2022/03/07 11:33:15;;;;;;;9.30;6.93;;;;;;;;;;5012515;28;20435;-76
2022/03/07 11:35:50;;;;;;;7.78;6.20;;;;;;;;;;5013042;28;20025;-76
2022/03/07 11:38:24;;;;;;;8.82;6.45;;;;;;;;;;5012959;28;20026;-74
2022/03/07 11:41:12;;;;;;;9.15;6.63;;;;;;;;;;5012894;28;20480;-75
2022/03/07 11:43:53;;;;;;;13.75;8.48;;;;;;;;;;5013335;28;20032;-78
2022/03/07 11:46:23;;;;;;;11.88;7.25;;;;;;;;;;5013041;28;20379;-77
2022/03/07 11:48:49;;;;;;;8.32;6.43;;;;;;;;;;5012647;28;20053;-77
2022/03/07 11:51:20;;;;;;;9.68;6.68;;;;;;;;;;5012411;28;20487;-77
2022/03/07 11:53:46;;;;;;;9.63;6.20;;;;;;;;;;5014589;28;20096;-74
2022/03/07 11:56:17;;;;;;;8.50;6.10;;;;;;;;;;5015078;28;20032;-75
2022/03/07 11:58:53;;;;;;;8.00;6.20;;;;;;;;;;5013800;28;20029;-74
2022/03/07 12:01:23;;;;;;;11.32;7.45;;;;;;;;;;5013540;28;20064;-74
2022/03/07 12:03:49;;;;;;;12.88;9.05;;;;;;;;;;5029986;28;20056;-74
2022/03/07 12:06:18;;;;;;;7.13;5.90;;;;;;;;;;5033924;28;20036;-74
2022/03/07 12:08:54;;;;;;;6.25;5.28;;;;;;;;;;5033969;28;20053;-76
2022/03/07 12:11:38;;;;;;;7.15;5.13;;;;;;;;;;5032619;28;20124;-73
2022/03/07 12:14:09;;;;;;;7.25;5.68;;;;;;;;;;5035392;28;20029;-77
2022/03/07 12:16:41;;;;;;;10.43;5.32;;;;;;;;;;5031155;28;20414;-74
2022/03/07 12:19:16;;;;;;;5.85;5.20;;;;;;;;;;5032097;28;20105;-74
2022/03/07 12:21:44;;;;;;;7.05;5.65;;;;;;;;;;5031998;28;20486;-76
2022/03/07 12:24:12;;;;;;;6.28;5.43;;;;;;;;;;5032559;28;20112;-74
2022/03/07 12:26:48;;;;;;;6.32;5.30;;;;;;;;;;5032466;28;20171;-75
2022/03/07 12:29:15;;;;;;;10.43;5.47;;;;;;;;;;5032727;28;20029;-74
2022/03/07 12:31:53;;;;;;;8.40;5.43;;;;;;;;;;5032506;28;20029;-77
2022/03/07 12:34:20;;;;;;;7.00;5.10;;;;;;;;;;5031569;28;20030;-73
2022/03/07 12:36:45;;;;;;;7.45;5.10;;;;;;;;;;5030431;28;20022;-75
2022/03/07 12:39:11;;;;;;;9.10;5.78;;;;;;;;;;5031557;28;20545;-73
2022/03/07 12:41:36;;;;;;;14.20;6.40;;;;;;;;;;5031906;28;20025;-76
2022/03/07 12:44:03;;;;;;;8.18;5.18;;;;;;;;;;5031734;28;20021;-74
2022/03/07 12:46:29;;;;;;;6.15;5.53;;;;;;;;;;5031982;28;20075;-74
2022/03/07 12:48:56;;;;;;;9.27;6.82;;;;;;;;;;5032048;28;20026;-75
2022/03/07 12:51:23;;;;;;;8.07;6.20;;;;;;;;;;5032585;28;20032;-77
2022/03/07 12:53:56;;;;;;;6.13;5.40;;;;;;;;;;5018457;28;20532;-75
2022/03/07 12:56:33;;;;;;;6.60;5.30;;;;;;;;;;5031086;28;20033;-73
2022/03/07 12:58:58;;;;;;;8.10;5.53;;;;;;;;;;5031606;28;20037;-74
2022/03/07 13:01:25;;;;;;;12.50;5.78;;;;;;;;;;5031744;28;20077;-74
2022/03/07 13:03:52;;;;;;;6.65;5.40;;;;;;;;;;5031858;28;20026;-75
2022/03/07 13:06:21;;;;;;;6.10;5.30;;;;;;;;;;5036055;28;20032;-75
2022/03/07 13:08:52;;;;;;;6.72;5.60;;;;;;;;;;5029704;28;20376;-74
2022/03/07 13:11:30;;;;;;;7.63;5.40;;;;;;;;;;5015964;28;20030;-76
2022/03/07 13:13:55;;;;;;;9.93;5.93;;;;;;;;;;5011969;28;20495;-74
2022/03/07 13:16:29;;;;;;;5.80;5.20;;;;;;;;;;5013074;28;20041;-76
2022/03/07 13:18:59;;;;;;;6.88;5.55;;;;;;;;;;5024880;28;20025;-76
2022/03/07 13:21:25;;;;;;;7.10;5.75;;;;;;;;;;5034069;28;20494;-75
2022/03/07 13:23:50;;;;;;;8.32;5.88;;;;;;;;;;5036964;28;20032;-74
2022/03/07 13:26:21;;;;;;;6.85;5.40;;;;;;;;;;5036105;28;20033;-75
2022/03/07 13:28:47;;;;;;;9.43;5.50;;;;;;;;;;5029628;28;20037;-76
2022/03/07 13:31:14;;;;;;;7.18;5.63;;;;;;;;;;5029494;28;20029;-76
2022/03/07 13:33:40;;;;;;;7.55;5.65;;;;;;;;;;5030644;28;20438;-77
2022/03/07 13:36:10;;;;;;;7.00;5.55;;;;;;;;;;5031311;28;20026;-76
2022/03/07 13:38:36;;;;;;;7.95;5.63;;;;;;;;;;5031139;28;20060;-75
2022/03/07 13:41:08;;;;;;;8.55;5.63;;;;;;;;;;5029420;28;20440;-75
2022/03/07 13:43:35;;;;;;;7.35;5.25;;;;;;;;;;5030925;28;20060;-75
2022/03/07 13:46:01;;;;;;;6.60;5.50;;;;;;;;;;5030342;28;20036;-76
2022/03/07 13:48:26;;;;;;;7.00;5.40;;;;;;;;;;5031084;28;20021;-73
2022/03/07 13:50:52;;;;;;;7.90;5.28;;;;;;;;;;5031023;28;20502;-74
2022/03/07 13:53:22;;;;;;;8.05;6.13;;;;;;;;;;5030495;28;20021;-73
2022/03/07 13:55:50;;;;;;;6.93;5.70;;;;;;;;;;5028760;28;20041;-75
2022/03/07 13:58:23;;;;;;;8.48;5.90;;;;;;;;;;5030539;28;20048;-73
2022/03/07 14:00:49;;;;;;;;;;;;;;;;;;5031004;28;20036;-75
2022/03/07 14:03:15;;;;;;;6.70;5.30;;;;;;;;;;5029211;28;20008;-75
2022/03/07 14:05:51;;;;;;;7.03;5.75;;;;;;;;;;5013914;28;20483;-75
2022/03/07 14:08:27;;;;;;;7.28;5.55;;;;;;;;;;5009997;28;20026;-76
2022/03/07 14:10:57;;;;;;;7.38;5.53;;;;;;;;;;5010861;28;20037;-76
2022/03/07 14:13:22;;;;;;;8.02;5.40;;;;;;;;;;5011169;28;20080;-75
2022/03/07 14:15:51;;;;;;;6.47;5.40;;;;;;;;;;5010741;28;20029;-75
2022/03/07 14:18:17;;;;;;;8.23;5.75;;;;;;;;;;5010389;28;20030;-76
2022/03/07 14:20:44;;;;;;;10.30;6.10;;;;;;;;;;5012281;28;20049;-74
2022/03/07 14:23:14;;;;;;;7.28;6.25;;;;;;;;;;5030028;28;20083;-74
2022/03/07 14:25:40;;;;;;;7.93;6.18;;;;;;;;;;5030719;28;20096;-78
2022/03/07 14:28:06;;;;;;;7.13;5.93;;;;;;;;;;5030031;28;20108;-76
2022/03/07 14:30:31;;;;;;;7.53;5.72;;;;;;;;;;5031046;28;20029;-74
2022/03/07 14:32:57;;;;;;;6.32;5.25;;;;;;;;;;5030367;28;20021;-74
2022/03/07 14:35:23;;;;;;;6.40;5.70;;;;;;;;;;5029732;28;20124;-76